createdAt,value
2022-07-28T00:00:48.373Z,102108.16
2022-07-28T00:03:14.932Z,102106.44
2022-07-28T00:05:41.649Z,102109.97
2022-07-28T00:08:10.145Z,102096.44
2022-07-28T00:10:36.922Z,102094.59
2022-07-28T00:13:03.994Z,102094.38
2022-07-28T00:15:33.897Z,102099.75
2022-07-28T00:18:00.687Z,102105.81
2022-07-28T00:20:27.986Z,102108.19
2022-07-28T00:22:54.554Z,102107.03
2022-07-28T00:25:21.136Z,102099.19
2022-07-28T00:27:48.359Z,102104.31
2022-07-28T00:30:14.873Z,102097.59
2022-07-28T00:32:41.654Z,102101.56
2022-07-28T00:35:08.842Z,102098.16
2022-07-28T00:37:35.571Z,102110.59
2022-07-28T00:40:08.093Z,102106.59
2022-07-28T00:42:34.688Z,102098.06
2022-07-28T00:45:01.176Z,102100.00
2022-07-28T00:47:27.728Z,102103.84
2022-07-28T00:50:02.225Z,102094.41
2022-07-28T00:52:28.855Z,102089.28
2022-07-28T00:54:55.526Z,102081.09
2022-07-28T00:57:22.055Z,102071.78
2022-07-28T00:59:48.509Z,102070.63
2022-07-28T01:02:15.709Z,102078.81
2022-07-28T01:04:42.415Z,102072.81
2022-07-28T01:07:20.685Z,102067.56
2022-07-28T01:10:16.689Z,102075.44
2022-07-28T01:12:55.694Z,102071.09
2022-07-28T01:15:47.651Z,102083.84
2022-07-28T01:18:20.954Z,102083.63
2022-07-28T01:20:53.535Z,102074.84
2022-07-28T01:23:28.051Z,102075.28
2022-07-28T01:26:25.675Z,102071.75
2022-07-28T01:29:14.385Z,102064.13
2022-07-28T01:31:51.182Z,102064.81
2022-07-28T01:34:25.344Z,102063.56
2022-07-28T01:36:59.667Z,102060.94
2022-07-28T01:39:36.131Z,102065.38
2022-07-28T01:42:05.044Z,102060.38
2022-07-28T01:44:35.247Z,102054.47
2022-07-28T01:47:07.411Z,102053.78
2022-07-28T01:49:36.139Z,102053.09
2022-07-28T01:52:05.926Z,102046.72
2022-07-28T01:54:34.493Z,102042.41
2022-07-28T01:57:02.627Z,102050.13
2022-07-28T01:59:31.970Z,102048.44
2022-07-28T02:02:00.967Z,102050.38
2022-07-28T02:04:29.037Z,102047.84
2022-07-28T02:06:56.540Z,102047.28
2022-07-28T02:09:24.266Z,102044.19
2022-07-28T02:11:53.846Z,102056.13
2022-07-28T02:14:24.028Z,102053.50
2022-07-28T02:16:57.722Z,102053.81
2022-07-28T02:19:25.713Z,102040.84
2022-07-28T02:21:54.367Z,102049.38
2022-07-28T02:24:26.347Z,102038.00
2022-07-28T02:27:03.746Z,102039.50
2022-07-28T02:29:50.858Z,102046.66
2022-07-28T02:32:36.928Z,102039.00
2022-07-28T02:35:09.438Z,102029.56
2022-07-28T02:37:46.019Z,102029.13
2022-07-28T02:40:14.914Z,102025.59
2022-07-28T02:42:45.409Z,102022.88
2022-07-28T02:45:13.087Z,102022.09
2022-07-28T02:47:45.859Z,102023.56
2022-07-28T02:50:14.911Z,102012.16
2022-07-28T02:52:43.096Z,102023.34
2022-07-28T02:55:12.369Z,102021.53
2022-07-28T02:57:41.854Z,102018.31
2022-07-28T03:00:09.599Z,102024.47
2022-07-28T03:02:37.994Z,102025.16
2022-07-28T03:05:07.669Z,102028.63
2022-07-28T03:07:50.600Z,102039.06
2022-07-28T03:10:19.540Z,102031.69
2022-07-28T03:13:00.993Z,102035.53
2022-07-28T03:15:27.606Z,102039.53
2022-07-28T03:17:54.092Z,102031.03
2022-07-28T03:20:20.549Z,102044.44
2022-07-28T03:22:47.066Z,102036.06
2022-07-28T03:25:19.414Z,102036.72
2022-07-28T03:27:48.595Z,102031.34
2022-07-28T03:30:17.889Z,102039.88
2022-07-28T03:32:49.369Z,102033.97
2022-07-28T03:35:16.328Z,102041.41
2022-07-28T03:37:58.289Z,102044.00
2022-07-28T03:40:26.904Z,102056.84
2022-07-28T03:42:54.620Z,102053.47
2022-07-28T03:45:22.056Z,102055.56
2022-07-28T03:47:57.080Z,102061.19
2022-07-28T03:50:25.038Z,102063.91
2022-07-28T03:52:52.516Z,102062.28
2022-07-28T03:55:19.351Z,102069.22
2022-07-28T03:57:46.449Z,102053.78
2022-07-28T04:00:14.758Z,102054.31
2022-07-28T04:02:44.042Z,102058.97
2022-07-28T04:05:12.781Z,102058.72
2022-07-28T04:07:40.516Z,102061.78
2022-07-28T04:10:09.825Z,102053.06
2022-07-28T04:12:46.670Z,102047.81
2022-07-28T04:15:14.561Z,102050.66
2022-07-28T04:17:42.030Z,102053.72
2022-07-28T04:20:09.647Z,102042.72
2022-07-28T04:22:36.154Z,102057.59
2022-07-28T04:25:02.802Z,102053.94
2022-07-28T04:27:29.282Z,102053.25
2022-07-28T04:29:55.802Z,102053.66
2022-07-28T04:32:22.313Z,102048.00
2022-07-28T04:34:49.597Z,102047.47
2022-07-28T04:37:16.185Z,102050.66
2022-07-28T04:39:43.415Z,102051.66
2022-07-28T04:42:09.916Z,102060.16
2022-07-28T04:44:40.359Z,102054.72
2022-07-28T04:47:07.183Z,102050.94
2022-07-28T04:49:35.625Z,102051.16
2022-07-28T04:52:03.415Z,102058.19
2022-07-28T04:54:29.995Z,102059.19
2022-07-28T04:56:56.558Z,102051.94
2022-07-28T04:59:23.151Z,102051.16
2022-07-28T05:01:51.540Z,102058.25
2022-07-28T05:04:18.807Z,102056.00
2022-07-28T05:06:45.627Z,102055.00
2022-07-28T05:09:12.110Z,102056.97
2022-07-28T05:11:38.572Z,102063.38
2022-07-28T05:14:05.576Z,102062.84
2022-07-28T05:16:32.463Z,102060.56
2022-07-28T05:19:00.623Z,102064.56
2022-07-28T05:21:27.164Z,102064.22
2022-07-28T05:23:53.625Z,102065.72
2022-07-28T05:26:20.230Z,102060.69
2022-07-28T05:28:46.687Z,102051.94
2022-07-28T05:31:13.339Z,102054.31
2022-07-28T05:33:39.998Z,102053.03
2022-07-28T05:36:07.997Z,102055.47
2022-07-28T05:38:34.546Z,102052.31
2022-07-28T05:41:01.064Z,102054.97
2022-07-28T05:43:27.508Z,102048.63
2022-07-28T05:45:54.073Z,102054.72
2022-07-28T05:48:21.515Z,102056.13
2022-07-28T05:50:49.358Z,102052.06
2022-07-28T05:53:16.010Z,102051.81
2022-07-28T05:56:00.791Z,102045.47
2022-07-28T05:58:28.464Z,102052.06
2022-07-28T06:00:59.334Z,102057.31
2022-07-28T06:03:26.054Z,102064.38
2022-07-28T06:05:59.230Z,102064.13
2022-07-28T06:08:42.016Z,102061.41
2022-07-28T06:11:11.805Z,102064.47
2022-07-28T06:13:46.348Z,102069.59
2022-07-28T06:16:13.486Z,102064.28
2022-07-28T06:18:40.151Z,102069.78
2022-07-28T06:21:06.640Z,102063.22
2022-07-28T06:23:33.170Z,102065.91
2022-07-28T06:26:00.414Z,102063.34
2022-07-28T06:28:26.883Z,102060.88
2022-07-28T06:30:53.408Z,102063.28
2022-07-28T06:33:19.908Z,102061.78
2022-07-28T06:35:50.034Z,102064.34
2022-07-28T06:38:19.535Z,102059.50
2022-07-28T06:40:46.290Z,102049.59
2022-07-28T06:43:14.462Z,102052.34
2022-07-28T06:45:41.052Z,102052.25
2022-07-28T06:48:08.637Z,102057.63
2022-07-28T06:50:35.967Z,102059.03
2022-07-28T06:53:02.520Z,102056.56
2022-07-28T06:55:35.597Z,102053.25
2022-07-28T06:58:05.844Z,102058.47
2022-07-28T07:00:33.277Z,102054.16
2022-07-28T07:03:00.758Z,102058.16
2022-07-28T07:05:29.980Z,102053.94
2022-07-28T07:07:56.581Z,102052.03
2022-07-28T07:10:23.207Z,102059.16
2022-07-28T07:12:49.778Z,102053.84
2022-07-28T07:15:16.303Z,102052.56
2022-07-28T07:17:42.833Z,102053.06
2022-07-28T07:20:10.216Z,102049.81
2022-07-28T07:22:43.271Z,102041.66
2022-07-28T07:25:15.363Z,102042.44
2022-07-28T07:27:42.239Z,102046.22
2022-07-28T07:30:09.539Z,102042.09
2022-07-28T07:32:36.420Z,102040.81
2022-07-28T07:35:04.024Z,102043.78
2022-07-28T07:37:32.532Z,102032.75
2022-07-28T07:40:00.198Z,102047.31
2022-07-28T07:42:26.847Z,102038.06
2022-07-28T07:44:53.514Z,102040.16
2022-07-28T07:47:20.034Z,102041.19
2022-07-28T07:49:46.738Z,102038.19
2022-07-28T07:52:14.213Z,102031.56
2022-07-28T07:54:41.797Z,102031.56
2022-07-28T07:57:08.579Z,102026.63
2022-07-28T07:59:35.127Z,102038.56
2022-07-28T08:02:02.046Z,102033.44
2022-07-28T08:04:29.045Z,102026.25
2022-07-28T08:06:56.225Z,102035.38
2022-07-28T08:09:23.566Z,102035.09
2022-07-28T08:11:50.092Z,102037.47
2022-07-28T08:14:17.629Z,102031.19
2022-07-28T08:16:44.649Z,102022.28
2022-07-28T08:19:11.195Z,102031.84
2022-07-28T08:21:38.431Z,102022.31
2022-07-28T08:24:05.218Z,102036.25
2022-07-28T08:26:31.680Z,102029.00
2022-07-28T08:28:58.227Z,102018.59
2022-07-28T08:31:24.855Z,102030.75
2022-07-28T08:33:53.940Z,102021.78
2022-07-28T08:36:21.553Z,102025.56
2022-07-28T08:38:48.119Z,102017.44
2022-07-28T08:41:26.293Z,102023.69
2022-07-28T08:44:04.022Z,102019.06
2022-07-28T08:46:38.512Z,102017.13
2022-07-28T08:49:09.547Z,102020.44
2022-07-28T08:51:37.913Z,102011.16
2022-07-28T08:54:06.244Z,102016.56
2022-07-28T08:56:33.283Z,102008.59
2022-07-28T08:59:01.938Z,102005.13
2022-07-28T09:01:38.694Z,102004.72
2022-07-28T09:04:07.406Z,102009.19
2022-07-28T09:06:34.759Z,102008.06
2022-07-28T09:09:01.389Z,102000.25
2022-07-28T09:11:28.565Z,102002.47
2022-07-28T09:13:55.080Z,101998.34
2022-07-28T09:16:21.691Z,101995.25
2022-07-28T09:18:48.529Z,101994.50
2022-07-28T09:21:15.533Z,102003.59
2022-07-28T09:23:46.683Z,101997.59
2022-07-28T09:26:13.663Z,102003.88
2022-07-28T09:28:51.281Z,102003.19
2022-07-28T09:31:18.791Z,101996.91
2022-07-28T09:33:55.969Z,101997.66
2022-07-28T09:36:22.875Z,101999.25
2022-07-28T09:38:49.546Z,102000.03
2022-07-28T09:41:18.936Z,101993.63
2022-07-28T09:43:49.802Z,101991.28
2022-07-28T09:46:21.296Z,101984.56
2022-07-28T09:48:51.166Z,101994.91
2022-07-28T09:51:24.417Z,101984.22
2022-07-28T09:53:51.492Z,101984.69
2022-07-28T09:56:18.594Z,101990.66
2022-07-28T09:58:57.454Z,101986.28
2022-07-28T10:01:27.461Z,101981.16
2022-07-28T10:04:02.782Z,101979.97
2022-07-28T10:06:34.462Z,101980.00
2022-07-28T10:09:03.613Z,101975.22
2022-07-28T10:11:31.151Z,101965.38
2022-07-28T10:14:03.104Z,101972.09
2022-07-28T10:16:32.199Z,101960.66
2022-07-28T10:19:01.722Z,101945.63
2022-07-28T10:21:30.922Z,101958.69
2022-07-28T10:24:03.498Z,101954.31
2022-07-28T10:26:37.997Z,101952.75
2022-07-28T10:29:09.055Z,101958.66
2022-07-28T10:31:57.921Z,101946.44
2022-07-28T10:34:46.318Z,101944.81
2022-07-28T10:37:23.820Z,101947.53
2022-07-28T10:40:11.385Z,101932.81
2022-07-28T10:42:40.735Z,101932.78
2022-07-28T10:45:12.818Z,101935.19
2022-07-28T10:47:39.642Z,101921.81
2022-07-28T10:50:08.518Z,101923.03
2022-07-28T10:52:47.412Z,101918.72
2022-07-28T10:55:31.729Z,101923.13
2022-07-28T10:58:24.904Z,101912.09
2022-07-28T11:00:56.480Z,101916.03
2022-07-28T11:03:47.175Z,101906.94
2022-07-28T11:06:39.735Z,101914.81
2022-07-28T11:09:15.583Z,101908.47
2022-07-28T11:11:43.006Z,101914.84
2022-07-28T11:14:24.941Z,101911.31
2022-07-28T11:17:00.376Z,101914.47
2022-07-28T11:19:40.500Z,101908.16
2022-07-28T11:22:22.318Z,101923.16
2022-07-28T11:25:19.443Z,101914.84
2022-07-28T11:27:51.191Z,101923.53
2022-07-28T11:30:33.670Z,101914.47
2022-07-28T11:33:01.067Z,101913.28
2022-07-28T11:35:28.235Z,101900.66
2022-07-28T11:38:00.654Z,101901.03
2022-07-28T11:40:34.187Z,101899.78
2022-07-28T11:43:36.999Z,101889.13
2022-07-28T11:46:04.768Z,101895.09
2022-07-28T11:48:38.448Z,101884.81
2022-07-28T11:51:05.138Z,101893.13
2022-07-28T11:53:40.118Z,101891.09
2022-07-28T11:56:08.619Z,101887.81
2022-07-28T11:58:35.536Z,101886.16
2022-07-28T12:01:17.674Z,101878.66
2022-07-28T12:03:50.275Z,101889.94
2022-07-28T12:06:34.030Z,101875.50
2022-07-28T12:09:05.215Z,101872.25
2022-07-28T12:11:41.010Z,101870.03
2022-07-28T12:14:13.575Z,101866.06
2022-07-28T12:16:43.402Z,101861.56
2022-07-28T12:19:11.476Z,101864.97
2022-07-28T12:21:49.444Z,101868.47
2022-07-28T12:24:19.079Z,101863.84
2022-07-28T12:26:49.482Z,101850.38
2022-07-28T12:29:17.280Z,101862.34
2022-07-28T12:31:59.357Z,101853.03
2022-07-28T12:34:30.082Z,101851.84
2022-07-28T12:37:04.542Z,101840.75
2022-07-28T12:39:34.262Z,101843.44
2022-07-28T12:42:05.897Z,101837.50
2022-07-28T12:44:40.706Z,101833.03
2022-07-28T12:47:09.582Z,101835.59
2022-07-28T12:49:37.460Z,101821.56
2022-07-28T12:52:22.448Z,101824.09
2022-07-28T12:54:53.407Z,101817.34
2022-07-28T12:57:48.034Z,101807.69
2022-07-28T13:00:16.710Z,101807.50
2022-07-28T13:02:43.239Z,101806.72
2022-07-28T13:05:10.967Z,101816.13
2022-07-28T13:07:40.405Z,101817.94
2022-07-28T13:10:12.349Z,101820.69
2022-07-28T13:12:39.271Z,101814.50
2022-07-28T13:15:15.900Z,101820.72
2022-07-28T13:17:50.334Z,101817.78
2022-07-28T13:20:16.854Z,101819.81
2022-07-28T13:22:46.687Z,101821.78
2022-07-28T13:25:14.164Z,101816.19
2022-07-28T13:27:41.032Z,101810.13
2022-07-28T13:30:08.845Z,101805.19
2022-07-28T13:32:35.567Z,101813.75
2022-07-28T13:35:03.158Z,101807.63
2022-07-28T13:37:29.678Z,101818.41
2022-07-28T13:39:56.155Z,101807.81
2022-07-28T13:42:23.832Z,101808.19
2022-07-28T13:44:50.746Z,101794.69
2022-07-28T13:47:17.950Z,101796.41
2022-07-28T13:49:44.505Z,101794.66
2022-07-28T13:52:17.177Z,101793.38
2022-07-28T13:54:55.991Z,101791.22
2022-07-28T13:57:22.576Z,101794.94
2022-07-28T13:59:49.055Z,101795.81
2022-07-28T14:02:16.364Z,101789.41
2022-07-28T14:04:45.807Z,101797.28
2022-07-28T14:07:12.703Z,101786.97
2022-07-28T14:09:39.583Z,101785.81
2022-07-28T14:12:07.333Z,101784.84
2022-07-28T14:14:35.182Z,101779.53
2022-07-28T14:17:10.320Z,101781.28
2022-07-28T14:19:48.796Z,101781.06
2022-07-28T14:22:15.303Z,101783.97
2022-07-28T14:24:42.775Z,101782.84
2022-07-28T14:27:10.501Z,101786.03
2022-07-28T14:29:37.329Z,101787.75
2022-07-28T14:32:04.061Z,101782.03
2022-07-28T14:34:30.529Z,101785.81
2022-07-28T14:36:57.189Z,101784.06
2022-07-28T14:39:23.656Z,101784.13
2022-07-28T14:41:50.329Z,101780.28
2022-07-28T14:44:24.348Z,101781.25
2022-07-28T14:46:51.559Z,101786.19
2022-07-28T14:49:18.201Z,101779.78
2022-07-28T14:51:45.040Z,101778.44
2022-07-28T14:54:12.320Z,101769.22
2022-07-28T14:56:39.084Z,101762.59
2022-07-28T14:59:05.607Z,101759.03
2022-07-28T15:01:35.903Z,101755.13
2022-07-28T15:04:03.129Z,101748.50
2022-07-28T15:06:29.625Z,101743.53
2022-07-28T15:08:57.739Z,101743.16
2022-07-28T15:11:24.555Z,101745.06
2022-07-28T15:13:51.068Z,101742.28
2022-07-28T15:16:17.580Z,101737.97
2022-07-28T15:18:44.766Z,101743.09
2022-07-28T15:21:16.223Z,101741.59
2022-07-28T15:23:43.028Z,101737.50
2022-07-28T15:26:10.068Z,101757.16
2022-07-28T15:28:36.767Z,101737.78
2022-07-28T15:31:03.494Z,101747.75
2022-07-28T15:33:32.004Z,101742.75
2022-07-28T15:36:01.341Z,101745.44
2022-07-28T15:38:29.194Z,101746.13
2022-07-28T15:40:58.670Z,101740.03
2022-07-28T15:43:25.195Z,101741.28
2022-07-28T15:45:54.766Z,101747.44
2022-07-28T15:48:22.517Z,101749.44
2022-07-28T15:50:49.133Z,101746.19
2022-07-28T15:53:16.522Z,101739.38
2022-07-28T15:55:46.368Z,101740.56
2022-07-28T15:58:17.124Z,101745.84
2022-07-28T16:00:44.452Z,101743.19
2022-07-28T16:03:11.499Z,101748.78
2022-07-28T16:05:38.221Z,101739.69
2022-07-28T16:08:04.960Z,101733.47
2022-07-28T16:10:31.569Z,101739.78
2022-07-28T16:12:58.081Z,101742.88
2022-07-28T16:15:27.656Z,101734.44
2022-07-28T16:17:54.561Z,101733.41
2022-07-28T16:20:21.746Z,101732.09
2022-07-28T16:22:48.438Z,101735.97
2022-07-28T16:25:20.278Z,101737.03
2022-07-28T16:27:47.737Z,101742.09
2022-07-28T16:30:15.514Z,101744.63
2022-07-28T16:32:42.095Z,101733.25
2022-07-28T16:35:09.282Z,101737.69
2022-07-28T16:37:37.496Z,101738.09
2022-07-28T16:40:04.767Z,101736.47
2022-07-28T16:42:31.708Z,101734.44
2022-07-28T16:44:58.450Z,101736.13
2022-07-28T16:47:24.954Z,101739.38
2022-07-28T16:49:51.563Z,101730.28
2022-07-28T16:52:18.107Z,101723.59
2022-07-28T16:54:45.715Z,101721.25
2022-07-28T16:57:14.263Z,101724.50
2022-07-28T16:59:47.960Z,101719.31
2022-07-28T17:02:15.874Z,101726.03
2022-07-28T17:04:42.490Z,101732.72
2022-07-28T17:07:09.071Z,101726.47
2022-07-28T17:09:35.576Z,101729.22
2022-07-28T17:12:02.144Z,101731.66
2022-07-28T17:14:28.664Z,101732.09
2022-07-28T17:16:55.218Z,101738.09
2022-07-28T17:19:22.199Z,101733.06
2022-07-28T17:21:49.050Z,101730.72
2022-07-28T17:24:16.139Z,101736.19
2022-07-28T17:27:35.249Z,101730.94
2022-07-28T17:29:29.484Z,101727.81
2022-07-28T17:31:56.187Z,101729.78
2022-07-28T17:34:23.909Z,101727.41
2022-07-28T17:36:50.506Z,101731.78
2022-07-28T17:39:17.080Z,101732.16
2022-07-28T17:41:43.588Z,101736.91
2022-07-28T17:44:10.289Z,101727.53
2022-07-28T17:46:37.946Z,101739.78
2022-07-28T17:49:05.710Z,101724.84
2022-07-28T17:51:32.411Z,101723.72
2022-07-28T17:53:58.956Z,101724.16
2022-07-28T17:56:26.228Z,101726.94
2022-07-28T17:58:52.814Z,101728.94
2022-07-28T18:01:19.500Z,101735.28
2022-07-28T18:03:59.660Z,101727.34
2022-07-28T18:06:33.428Z,101731.31
2022-07-28T18:09:06.095Z,101729.38
2022-07-28T18:11:33.311Z,101732.16
2022-07-28T18:14:04.325Z,101730.22
2022-07-28T18:16:34.382Z,101725.13
2022-07-28T18:19:02.101Z,101733.81
2022-07-28T18:21:28.833Z,101730.28
2022-07-28T18:23:55.314Z,101718.47
2022-07-28T18:26:22.346Z,101727.16
2022-07-28T18:28:49.057Z,101726.75
2022-07-28T18:31:15.633Z,101725.59
2022-07-28T18:33:42.165Z,101730.72
2022-07-28T18:36:08.698Z,101729.97
2022-07-28T18:38:35.269Z,101733.47
2022-07-28T18:41:01.751Z,101725.59
2022-07-28T18:43:28.266Z,101730.69
2022-07-28T18:45:54.817Z,101734.25
2022-07-28T18:48:21.317Z,101726.38
2022-07-28T18:50:47.821Z,101726.78
2022-07-28T18:53:14.370Z,101733.06
2022-07-28T18:55:40.849Z,101735.44
2022-07-28T18:58:07.428Z,101749.22
2022-07-28T19:00:33.995Z,101740.59
2022-07-28T19:03:01.557Z,101748.06
2022-07-28T19:05:37.053Z,101739.00
2022-07-28T19:08:04.920Z,101742.16
2022-07-28T19:10:32.261Z,101735.06
2022-07-28T19:12:59.058Z,101744.13
2022-07-28T19:15:25.776Z,101743.72
2022-07-28T19:18:10.205Z,101743.75
2022-07-28T19:20:39.287Z,101748.84
2022-07-28T19:23:06.005Z,101751.22
2022-07-28T19:25:33.013Z,101754.34
2022-07-28T19:27:59.557Z,101761.47
2022-07-28T19:30:26.195Z,101762.66
2022-07-28T19:32:52.658Z,101769.31
2022-07-28T19:35:19.194Z,101765.38
2022-07-28T19:37:45.674Z,101764.16
2022-07-28T19:40:12.320Z,101771.66
2022-07-28T19:42:38.842Z,101772.44
2022-07-28T19:45:06.380Z,101766.50
2022-07-28T19:47:36.932Z,101766.84
2022-07-28T19:50:05.230Z,101765.63
2022-07-28T19:52:31.945Z,101762.84
2022-07-28T19:54:58.482Z,101767.59
2022-07-28T19:57:26.695Z,101762.09
2022-07-28T19:59:53.161Z,101762.47
2022-07-28T20:02:19.738Z,101765.97
2022-07-28T20:04:46.386Z,101771.13
2022-07-28T20:07:12.917Z,101780.53
2022-07-28T20:09:39.750Z,101779.75
2022-07-28T20:12:07.823Z,101782.50
2022-07-28T20:14:35.747Z,101785.56
2022-07-28T20:17:02.328Z,101789.88
2022-07-28T20:19:30.102Z,101792.66
2022-07-28T20:21:57.234Z,101790.28
2022-07-28T20:24:24.022Z,101790.66
2022-07-28T20:26:50.511Z,101796.53
2022-07-28T20:29:16.996Z,101787.44
2022-07-28T20:31:43.605Z,101791.38
2022-07-28T20:34:12.807Z,101787.38
2022-07-28T20:36:39.954Z,101792.44
2022-07-28T20:39:21.377Z,101785.28
2022-07-28T20:41:53.172Z,101785.72
2022-07-28T20:44:28.799Z,101785.81
2022-07-28T20:46:58.674Z,101779.84
2022-07-28T20:49:25.306Z,101790.00
2022-07-28T20:51:51.932Z,101782.06
2022-07-28T20:54:18.973Z,101790.34
2022-07-28T20:56:45.580Z,101793.38
2022-07-28T20:59:12.142Z,101789.84
2022-07-28T21:01:39.108Z,101792.66
2022-07-28T21:04:05.974Z,101802.88
2022-07-28T21:06:37.882Z,101790.31
2022-07-28T21:09:05.125Z,101800.13
2022-07-28T21:11:35.087Z,101800.47
2022-07-28T21:14:02.119Z,101801.13
2022-07-28T21:16:29.356Z,101796.78
2022-07-28T21:18:55.975Z,101798.66
2022-07-28T21:21:22.442Z,101803.38
2022-07-28T21:23:49.487Z,101799.84
2022-07-28T21:26:16.280Z,101809.69
2022-07-28T21:29:01.776Z,101804.22
2022-07-28T21:31:28.411Z,101806.13
2022-07-28T21:33:54.917Z,101807.31
2022-07-28T21:36:21.446Z,101808.03
2022-07-28T21:38:47.921Z,101808.03
2022-07-28T21:41:14.391Z,101805.19
2022-07-28T21:43:41.031Z,101817.34
2022-07-28T21:46:07.609Z,101815.78
2022-07-28T21:48:34.141Z,101817.75
2022-07-28T21:51:00.686Z,101818.53
2022-07-28T21:53:27.180Z,101809.03
2022-07-28T21:55:53.703Z,101819.94
2022-07-28T21:58:20.328Z,101811.94
2022-07-28T22:00:46.897Z,101814.44
2022-07-28T22:03:13.459Z,101811.97
2022-07-28T22:05:40.152Z,101812.34
2022-07-28T22:08:06.762Z,101813.44
2022-07-28T22:10:33.255Z,101810.69
2022-07-28T22:13:00.194Z,101811.16
2022-07-28T22:15:26.843Z,101807.66
2022-07-28T22:17:53.305Z,101809.97
2022-07-28T22:20:19.784Z,101815.00
2022-07-28T22:22:47.085Z,101822.44
2022-07-28T22:25:13.561Z,101823.31
2022-07-28T22:27:40.054Z,101821.34
2022-07-28T22:30:07.439Z,101823.25
2022-07-28T22:32:33.929Z,101823.16
2022-07-28T22:35:00.400Z,101815.84
2022-07-28T22:37:26.996Z,101818.59
2022-07-28T22:39:53.698Z,101823.69
2022-07-28T22:42:20.175Z,101823.97
2022-07-28T22:44:46.654Z,101823.44
2022-07-28T22:47:13.126Z,101819.19
2022-07-28T22:49:39.627Z,101822.75
2022-07-28T22:52:06.196Z,101812.47
2022-07-28T22:54:32.669Z,101819.53
2022-07-28T22:56:59.168Z,101819.53
2022-07-28T22:59:25.664Z,101823.38
2022-07-28T23:01:54.211Z,101821.88
2022-07-28T23:04:22.071Z,101822.66
2022-07-28T23:06:50.967Z,101816.66
2022-07-28T23:09:17.484Z,101819.59
2022-07-28T23:11:55.623Z,101820.56
2022-07-28T23:14:23.499Z,101820.91
2022-07-28T23:16:50.255Z,101824.38
2022-07-28T23:19:17.232Z,101818.78
2022-07-28T23:21:44.023Z,101816.03
2022-07-28T23:24:10.571Z,101815.63
2022-07-28T23:26:37.131Z,101823.84
2022-07-28T23:29:03.707Z,101825.81
2022-07-28T23:31:30.394Z,101820.47
2022-07-28T23:33:57.735Z,101816.06
2022-07-28T23:36:27.621Z,101815.66
2022-07-28T23:38:58.894Z,101817.22
2022-07-28T23:41:26.671Z,101807.84
2022-07-28T23:43:53.303Z,101814.09
2022-07-28T23:46:20.389Z,101813.16
2022-07-28T23:48:47.705Z,101810.97
2022-07-28T23:51:14.341Z,101809.81
2022-07-28T23:53:43.867Z,101805.03
2022-07-28T23:56:10.459Z,101801.41
2022-07-28T23:58:37.018Z,101800.25
